FRIANT DAM (MILLERTON) (MIL)

Elevation: 581' · SAN JOAQUIN R basin · Operator: US Bureau of Reclamation

Provisional data, subject to change.
Query executed Wednesday at 9:18:27   clock

Select a sensor type for a plot of data.
Note: Reservoir Flows are daily averages.

Earlier

Date RES ELE    STORAGE    RES CHG    TOC STO    ABV TOC    OUTFLOW    INFLOW    EVAP    FNF    RIV REL    PPT INC    SPILL   
 FEET   AF   AF   AF   AF   CFS   CFS   CFS   CFS   CFS   INCHES   CFS  
05/30/2016 541.06 357122 3184 520500 -163378 1909 3555 41 5299 361 0.00 0
05/31/2016 541.79 360010 2888 520500 -160490 1985 3486 45 6877 e 362 0.00 0
06/01/2016 542.27 361916 1906 520500 -158584 2401 3417 55 9846 335 0.00 0
06/02/2016 542.57 363111 1195 520500 -157389 2760 3411 49 6105 348 0.00 0
06/03/2016 544.28 369962 6851 520500 -150538 2673 6186 59 7599 349 0.00 0
06/04/2016 546.49 378933 8971 520500 -141567 2248 6820 49 7889 311 0.00 0
06/05/2016 548.30 386377 7444 520500 -134123 2207 6016 56 7334 285 0.00 0
06/06/2016 550.17 394157 7780 520500 -- 2365 6328 41 7425 286 0.00 0
06/07/2016 551.96 401670 7513 468096 -118830 2462 6313 63 7362 288 0.00 0
06/08/2016 553.53 408333 6663 474330 -112167 2506 5919 54 7297 289 0.00 0
06/09/2016 555.01 414670 6337 480683 -66041 2467 5705 43 6597 289 0.00 0
06/10/2016 556.94 423027 8357 487939 -64912 2215 6473 45 5695 e 290 0.00 0
06/11/2016 557.62 425999 2972 491910 -67023 1988 3524 38 3993 291 0.20 0
06/12/2016 558.31 429024 3025 494874 -65850 2041 3594 28 5510 291 0.00 0
06/13/2016 559.36 433652 4628 499751 -66099 2222 4608 53 5638 292 0.00 0
06/14/2016 559.87 435910 2258 503679 -67769 2426 3614 50 4278 290 0.00 0
06/15/2016 560.43 438395 2485 507844 -69449 2562 3865 50 4046 291 0.00 0
06/16/2016 560.91 440528 2133 -- -- 2510 3615 30 3437 291 0.00 0
06/17/2016 561.32 442358 1830 515498 -- 2327 3296 46 3385 291 0.00 0
06/18/2016 561.85 444728 2370 519239 -- 2184 3423 44 3432 292 0.00 0
06/19/2016 562.27 446612 1884 520500 -- 2454 3459 55 3424 293 0.00 0
06/20/2016 562.55 447872 1260 520500 -72628 2736 3431 60 3750 293 0.00 0
06/21/2016 562.80 448996 1124 520500 -71504 2789 3404 48 4358 293 0.00 0
06/22/2016 562.88 449356 360 520500 -71144 2822 3073 70 4725 293 0.00 0
06/23/2016 563.07 450213 857 520500 -70287 2741 3236 63 3858 293 0.00 0
06/24/2016 563.14 450530 317 520500 -69970 2395 2612 57 3420 293 0.00 0
06/25/2016 563.47 452023 1493 520500 -68477 2187 3001 61 3173 293 0.00 0
06/26/2016 563.67 452928 905 520500 -67572 2378 2888 54 3043 294 0.00 0
06/27/2016 563.77 453380 452 -- -- 2598 2889 63 2985 293 0.00 0
06/28/2016 563.77 453380 0 -- -- 2816 2881 65 3115 293 0.00 0
06/29/2016 -- -- -- -- -- -- -- -- -- -- -- --

Later | Latest

Warning! This data is preliminary and subject to revision.

Show MIL Map | Plot MIL Data | 1 Month MIL Data | Real-Time MIL Data | MIL Info